^^

..:: Storico WU ::..




Lo storico viene creato da WUnderground con i dati che la stazione Meteomincio invia al loro server. L' aggiornamento viene fatto ogni 5 minuti circa, tuttavia possono esserci intervalli pi¨ ampi a causa di errori, interruzioni di servizio o problemi nell' invio tramite FTP.


Storico stazione MeteoMincio
Giorno Sommario per Dicembre 22, 2022 Unità:  Inglese    Metrico   Entrambi
Giorno Settimana Mese Anno
  Max: Min: Media:
Temperatura: 48 °F 42.8 °F 44.2 °F
Dew Point: 45.5 °F 41.7 °F 43 °F
Umidità: 97% 91% 95%
Velocità vento: 6.6mph 0mph 1.7mph
Raffica: 10.4mph - -
Direzione- - SW
Pressione: 30.1 in 30 in -
Precipitazioni: 0.01 in    
 
 
Tabulato Dati per Dicembre 22, 2022
Ora Temperatura Dew Point Pressione Direzione Velocità vento Raffica Umidità Intensità pioggia (oraria) Info solare Situazione
00:04 43.2 °F 42.3 °F 30.1 in Calm     96.5% 0.01 in 0 W/m2
00:09 43.2 °F 42.3 °F 30.1 in Calm     96.5% 0.01 in 0 W/m2
00:14 43.2 °F 42.4 °F 30.1 in SW 0.1 mph 2 mph 96.8% 0.01 in 0 W/m2
00:19 43.2 °F 42.3 °F 30.1 in WSW 1.1 mph 2.3 mph 96.5% 0 in 0 W/m2
00:24 43.2 °F 42.3 °F 30.1 in West 1.6 mph 3.5 mph 96.6% 0 in 0 W/m2
00:29 43.2 °F 42.4 °F 30.1 in West 1.7 mph 3.5 mph 96.8% 0 in 0 W/m2
00:34 43.2 °F 42.4 °F 30.1 in WSW 1.7 mph 3.5 mph 97% 0 in 0 W/m2
00:39 43.2 °F 42.4 °F 30.1 in WSW 1.9 mph 3.5 mph 96.8% 0 in 0 W/m2
00:44 43.3 °F 42.4 °F 30.1 in WSW 1.9 mph 3.5 mph 97% 0 in 0 W/m2
00:49 43.2 °F 42.4 °F 30.1 in West 2.1 mph 3.5 mph 97% 0 in 0 W/m2
00:54 43.2 °F 42.4 °F 30.1 in West 1.5 mph 3.5 mph 97% 0 in 0 W/m2
00:59 43.2 °F 42.4 °F 30.1 in West 0.6 mph 3 mph 97% 0 in 0 W/m2
01:04 43.2 °F 42.4 °F 30.1 in West 0.8 mph 3 mph 97% 0 in 0 W/m2
01:09 43.2 °F 42.4 °F 30.1 in WSW 1.3 mph 3.5 mph 97% 0 in 0 W/m2
01:14 43.2 °F 42.4 °F 30.1 in WSW 1 mph 3 mph 97% 0 in 0 W/m2
01:19 43.2 °F 42.4 °F 30.1 in WSW 1.3 mph 3 mph 97% 0 in 0 W/m2
01:24 43.2 °F 42.4 °F 30.1 in WSW 1.7 mph 3.5 mph 97% 0 in 0 W/m2
01:29 43.2 °F 42.4 °F 30.1 in WSW 0.6 mph 3 mph 97% 0 in 0 W/m2
01:34 43.2 °F 42.4 °F 30.1 in WSW 0.1 mph 2 mph 97% 0 in 0 W/m2
01:39 43.2 °F 42.3 °F 30.1 in WSW 0.7 mph 2.3 mph 96.8% 0 in 0 W/m2
01:44 43.2 °F 42.3 °F 30.1 in WSW 1.9 mph 3.5 mph 97% 0 in 0 W/m2
01:49 43.2 °F 42.3 °F 30.1 in West 2.4 mph 4 mph 96.8% 0 in 0 W/m2
01:54 43.2 °F 42.3 °F 30.1 in West 2.2 mph 3.5 mph 96.7% 0 in 0 W/m2
01:59 43.2 °F 42.3 °F 30.1 in West 2.7 mph 4 mph 96.6% 0 in 0 W/m2
02:04 43.2 °F 42.3 °F 30.1 in West 2.7 mph 4 mph 96.7% 0 in 0 W/m2
02:09 43 °F 41.9 °F 30.1 in West 2.2 mph 4 mph 96.2% 0 in 0 W/m2
02:14 43 °F 41.9 °F 30.1 in West 1.7 mph 3.5 mph 96% 0 in 0 W/m2
02:19 43 °F 41.9 °F 30.1 in West 1.5 mph 4 mph 96% 0 in 0 W/m2
02:24 43 °F 41.9 °F 30.1 in West 1.1 mph 4 mph 96% 0 in 0 W/m2
02:29 43 °F 41.9 °F 30.1 in West 1 mph 3 mph 96% 0 in 0 W/m2
02:34 43 °F 41.9 °F 30.1 in West 1.6 mph 3.5 mph 96% 0 in 0 W/m2
02:39 43 °F 41.9 °F 30.1 in West 1 mph 2.3 mph 96% 0 in 0 W/m2
02:44 43 °F 41.9 °F 30.1 in West 0.1 mph 2 mph 96% 0.01 in 0 W/m2
02:49 43 °F 41.9 °F 30.1 in Calm   1 mph 96% 0.01 in 0 W/m2
02:54 43 °F 41.9 °F 30.1 in WSW 0.1 mph 3.5 mph 96% 0.01 in 0 W/m2
02:59 43 °F 41.9 °F 30.1 in West 1.7 mph 3.5 mph 96% 0.01 in 0 W/m2
03:04 43 °F 41.9 °F 30.1 in West 1.2 mph 3 mph 96.1% 0.01 in 0 W/m2
03:09 43 °F 41.9 °F 30.1 in West 1.2 mph 2.3 mph 96.3% 0.01 in 0 W/m2
03:14 42.8 °F 41.7 °F 30.1 in West 1.2 mph 2.3 mph 96% 0.01 in 0 W/m2
03:19 43 °F 41.9 °F 30.1 in West 1.7 mph 3 mph 96.5% 0.01 in 0 W/m2
03:24 43 °F 41.9 °F 30.1 in West 1.6 mph 3.5 mph 96.3% 0.01 in 0 W/m2
03:29 43 °F 41.9 °F 30.1 in WSW 1.4 mph 3.5 mph 96.2% 0.01 in 0 W/m2
03:34 43 °F 41.9 °F 30.1 in WSW 1.7 mph 3.5 mph 96.2% 0.01 in 0 W/m2
03:39 43 °F 41.9 °F 30.1 in WSW 1.6 mph 3 mph 96.4% 0.01 in 0 W/m2
03:44 43 °F 41.9 °F 30.1 in West 2.1 mph 3.5 mph 96.4% 0.01 in 0 W/m2
03:49 43 °F 41.9 °F 30.1 in West 2.5 mph 5 mph 96.4% 0.01 in 0 W/m2
03:54 43 °F 41.9 °F 30.1 in West 2.3 mph 5 mph 96.5% 0.01 in 0 W/m2
03:59 43 °F 41.9 °F 30.1 in West 2.2 mph 4 mph 96.4% 0 in 0 W/m2
04:04 43 °F 42.1 °F 30.1 in West 1.8 mph 4 mph 96.7% 0 in 0 W/m2
04:09 43 °F 41.9 °F 30.1 in West 1.4 mph 3 mph 96.4% 0 in 0 W/m2
04:14 43 °F 42.1 °F 30.1 in West 1.2 mph 3.5 mph 96.6% 0 in 0 W/m2
04:19 43 °F 41.9 °F 30.1 in WNW 0.9 mph 3 mph 96.5% 0 in 0 W/m2
04:24 43 °F 42.1 °F 30.1 in WNW 0.7 mph 2.3 mph 96.6% 0 in 0 W/m2
04:29 43 °F 42.1 °F 30.1 in WNW 1.4 mph 2.3 mph 96.9% 0 in 0 W/m2
04:34 43 °F 42.1 °F 30.1 in WNW 0.8 mph 2.3 mph 96.8% 0 in 0 W/m2
04:39 43 °F 42.1 °F 30.1 in NW 1 mph 2.3 mph 96.9% 0 in 0 W/m2
04:44 43 °F 42.1 °F 30.1 in WNW 1.1 mph 2.3 mph 97% 0 in 0 W/m2
04:49 43 °F 42.3 °F 30.1 in WNW 0.5 mph 2.3 mph 97% 0 in 0 W/m2
04:54 43 °F 42.1 °F 30.1 in Calm   2 mph 97% 0 in 0 W/m2
04:59 43 °F 42.1 °F 30.1 in West 0.7 mph 2.3 mph 97% 0 in 0 W/m2
05:04 43 °F 42.1 °F 30.1 in WSW 1.5 mph 2.3 mph 97% 0 in 0 W/m2
05:09 43 °F 42.3 °F 30.1 in SW 1.7 mph 3.5 mph 97% 0 in 0 W/m2
05:14 43 °F 42.3 °F 30.1 in WSW 2.1 mph 3.5 mph 97% 0 in 0 W/m2
05:19 43 °F 42.3 °F 30.1 in WSW 0.7 mph 3 mph 97% 0 in 0 W/m2
05:24 43 °F 42.3 °F 30.1 in WSW 0.1 mph 1.2 mph 97% 0 in 0 W/m2
05:29 43 °F 42.3 °F 30.1 in WSW 0.6 mph 2.3 mph 97% 0 in 0 W/m2
05:34 43 °F 42.3 °F 30.1 in WSW 0.4 mph 2.3 mph 97% 0 in 0 W/m2
05:39 43 °F 42.3 °F 30.1 in WSW 2.1 mph 4 mph 97% 0 in 0 W/m2
05:44 43 °F 42.3 °F 30.1 in West 2.1 mph 4 mph 97% 0 in 0 W/m2
05:49 43 °F 42.3 °F 30.1 in WNW 1.4 mph 3 mph 97% 0 in 0 W/m2
05:54 43 °F 42.3 °F 30.1 in West 1.1 mph 3.5 mph 97% 0 in 0 W/m2
05:59 43 °F 42.3 °F 30.1 in WSW 2.4 mph 5 mph 97% 0 in 0 W/m2
06:04 43 °F 42.3 °F 30.1 in WSW 2.5 mph 5 mph 97% 0 in 0 W/m2
06:09 43 °F 42.3 °F 30.1 in WSW 1.4 mph 5 mph 97% 0 in 0 W/m2
06:14 43 °F 42.3 °F 30.1 in WSW 1 mph 3.5 mph 97% 0 in 0 W/m2
06:19 43 °F 42.3 °F 30.1 in WSW 1.4 mph 2.3 mph 97% 0 in 0 W/m2
06:24 43 °F 42.3 °F 30.1 in WSW 1.5 mph 2.3 mph 97% 0 in 0 W/m2
06:29 43 °F 42.3 °F 30.1 in WSW 1.2 mph 2.3 mph 97% 0 in 0 W/m2
06:34 43 °F 42.3 °F 30.1 in West 2.2 mph 4 mph 97% 0 in 0 W/m2
06:39 43 °F 42.3 °F 30.1 in West 2.3 mph 4 mph 97% 0 in 0 W/m2
06:44 43 °F 42.3 °F 30.1 in West 1.1 mph 3.5 mph 97% 0 in 0 W/m2
06:49 43 °F 42.3 °F 30.1 in West 1.2 mph 3.5 mph 97% 0 in 0 W/m2
06:54 43 °F 42.3 °F 30.1 in WSW 1.2 mph 3.5 mph 97% 0 in 0 W/m2
06:59 43 °F 42.3 °F 30.1 in WSW 1.1 mph 3.5 mph 97% 0 in 0 W/m2
07:04 43.2 °F 42.3 °F 30.1 in WSW 0.9 mph 3.5 mph 97% 0 in 0 W/m2
07:09 43 °F 42.3 °F 30.1 in WSW 2 mph 3.5 mph 97% 0 in 0 W/m2
07:14 43.2 °F 42.3 °F 30.1 in WSW 1 mph 3.5 mph 97% 0 in 0 W/m2
07:19 43.2 °F 42.3 °F 30.1 in SW 1 mph 3.5 mph 97% 0 in 0 W/m2
07:24 43.2 °F 42.3 °F 30.1 in SW 1.7 mph 3 mph 97% 0 in 0 W/m2
07:29 43.2 °F 42.3 °F 30.1 in WSW 1.2 mph 3.5 mph 97% 0 in 0 W/m2
07:34 43.2 °F 42.3 °F 30.1 in SW 1.7 mph 3.5 mph 97% 0 in 0 W/m2
07:39 43.2 °F 42.3 °F 30.1 in WSW 2.5 mph 4 mph 97% 0 in 0 W/m2
07:44 43.2 °F 42.3 °F 30.1 in WSW 3 mph 4 mph 97% 0 in 0 W/m2
07:49 43.2 °F 42.3 °F 30.1 in WSW 2.7 mph 4 mph 97% 0 in 0 W/m2
07:54 43.2 °F 42.3 °F 30.1 in West 1.4 mph 4 mph 97% 0 in 0 W/m2
07:59 43.2 °F 42.3 °F 30.1 in West 0.2 mph 3 mph 97% 0 in 0 W/m2
08:04 43 °F 42.3 °F 30.1 in West 0.2 mph 1.2 mph 97% 0 in 0 W/m2
08:09 43 °F 42.3 °F 30.1 in West 0.2 mph 1.2 mph 97% 0 in 5 W/m2
08:14 43 °F 42.3 °F 30.1 in West 0.1 mph 1.2 mph 97% 0 in 9 W/m2
08:19 43 °F 42.3 °F 30.1 in West 0.1 mph 1.2 mph 97% 0 in 11 W/m2
08:24 43 °F 42.3 °F 30.1 in WNW 1 mph 3.5 mph 97% 0 in 9 W/m2
08:29 43 °F 42.3 °F 30.1 in WNW 1.1 mph 3.5 mph 97% 0 in 11 W/m2
08:33 43 °F 42.3 °F 30.1 in WNW 1 mph 2.3 mph 97% 0 in 11 W/m2
08:39 43 °F 42.3 °F 30.1 in WNW 0.9 mph 2.3 mph 97% 0 in 14 W/m2
08:44 43 °F 42.3 °F 30.1 in WNW 0.9 mph 2.3 mph 97% 0 in 16 W/m2
08:49 43 °F 42.3 °F 30.1 in WNW 2.1 mph 4 mph 97% 0 in 16 W/m2
08:54 43.2 °F 42.3 °F 30.1 in WNW 1.3 mph 4 mph 97% 0 in 16 W/m2
08:59 43.2 °F 42.3 °F 30.1 in WNW 0.1 mph 3 mph 97% 0 in 23 W/m2
09:04 43.2 °F 42.4 °F 30.1 in WNW 0.3 mph 3 mph 97% 0 in 23 W/m2
09:09 43.2 °F 42.4 °F 30.1 in WNW 1.9 mph 3.5 mph 97% 0 in 23 W/m2
09:14 43.2 °F 42.4 °F 30.1 in West 1.9 mph 3.5 mph 97% 0 in 26 W/m2
09:19 43.3 °F 42.4 °F 30.1 in West 2 mph 4 mph 97% 0 in 32 W/m2
09:24 43.3 °F 42.6 °F 30.1 in West 2.2 mph 4 mph 97% 0 in 40 W/m2
09:29 43.3 °F 42.6 °F 30.1 in WSW 2.2 mph 4 mph 97% 0 in 49 W/m2
09:34 43.5 °F 42.8 °F 30.1 in WSW 2 mph 4 mph 97% 0 in 49 W/m2
09:39 43.5 °F 42.8 °F 30.1 in WSW 1.7 mph 3.5 mph 97% 0 in 44 W/m2
09:44 43.7 °F 43 °F 30.1 in WSW 1.6 mph 4 mph 97% 0 in 53 W/m2
09:49 43.7 °F 43 °F 30.1 in SW 2.5 mph 4 mph 97% 0 in 63 W/m2
09:54 43.9 °F 43 °F 30.1 in SW 2.5 mph 6 mph 97% 0 in 70 W/m2
09:59 43.9 °F 43.2 °F 30.1 in WSW 4.1 mph 6 mph 97% 0 in 69 W/m2
10:04 43.9 °F 43.2 °F 30.1 in SW 3.2 mph 5 mph 97% 0 in 77 W/m2
10:09 44.1 °F 43.2 °F 30.1 in WSW 3.6 mph 6 mph 97% 0 in 79 W/m2
10:14 44.1 °F 43.3 °F 30.1 in WSW 3.7 mph 6 mph 97% 0 in 86 W/m2
10:19 44.4 °F 43.5 °F 30.1 in WSW 2.9 mph 5 mph 97% 0 in 91 W/m2
10:24 44.6 °F 43.7 °F 30.1 in WSW 3 mph 5 mph 97% 0 in 105 W/m2
10:29 44.8 °F 43.7 °F 30.1 in WSW 3.5 mph 6 mph 96.2% 0 in 109 W/m2
10:34 44.8 °F 43.7 °F 30.1 in WSW 3.4 mph 6 mph 96% 0 in 105 W/m2
10:39 45 °F 43.7 °F 30.1 in WSW 3 mph 5 mph 96% 0 in 118 W/m2
10:44 45 °F 43.9 °F 30.1 in WSW 3.2 mph 5 mph 96% 0 in 105 W/m2
10:49 45.1 °F 44.1 °F 30.1 in WSW 2.3 mph 5 mph 96% 0 in 97 W/m2
10:54 45.3 °F 44.2 °F 30.1 in WNW 2.2 mph 4 mph 96% 0 in 100 W/m2
10:59 45.3 °F 44.1 °F 30.1 in WSW 3.1 mph 4 mph 95.1% 0 in 100 W/m2
11:04 45.5 °F 44.1 °F 30.1 in WSW 3.1 mph 5 mph 95% 0 in 97 W/m2
11:09 45.5 °F 44.2 °F 30.1 in West 2.1 mph 5 mph 95% 0 in 91 W/m2
11:14 45.5 °F 44.1 °F 30.1 in WSW 3.5 mph 6 mph 94.7% 0 in 86 W/m2
11:19 45.5 °F 43.9 °F 30.1 in WSW 3.7 mph 7 mph 94% 0 in 84 W/m2
11:24 45.5 °F 43.9 °F 30.1 in WSW 4.6 mph 7 mph 94% 0 in 93 W/m2
11:29 45.7 °F 44.1 °F 30.1 in WSW 4 mph 6 mph 93.9% 0 in 109 W/m2
11:34 45.7 °F 43.9 °F 30.1 in WSW 3.2 mph 6 mph 93% 0 in 109 W/m2
11:39 45.9 °F 43.9 °F 30.1 in WSW 3.3 mph 5 mph 93% 0 in 83 W/m2
11:44 45.9 °F 43.9 °F 30.1 in WSW 3.2 mph 5 mph 92.5% 0 in 79 W/m2
11:49 45.9 °F 43.7 °F 30.1 in West 3.5 mph 5 mph 92% 0 in 90 W/m2
11:54 46 °F 43.9 °F 30.1 in West 4.3 mph 6 mph 92% 0 in 109 W/m2
11:59 46.2 °F 44.1 °F 30.1 in West 4.1 mph 6 mph 92% 0 in 113 W/m2
12:04 46.2 °F 44.1 °F 30.1 in West 3.5 mph 6 mph 92% 0 in 114 W/m2
12:09 46.2 °F 44.1 °F 30.1 in West 3.1 mph 6 mph 92% 0 in 104 W/m2
12:14 46.4 °F 44.2 °F 30.1 in West 3.9 mph 7 mph 92% 0 in 128 W/m2
12:19 46.6 °F 44.4 °F 30.1 in West 3.3 mph 7 mph 92% 0 in 146 W/m2
12:24 46.6 °F 44.4 °F 30.1 in WNW 4.1 mph 7 mph 92% 0 in 127 W/m2
12:29 46.6 °F 44.4 °F 30.1 in West 3.3 mph 7 mph 92% 0 in 104 W/m2
12:34 46.8 °F 44.6 °F 30.1 in West 3.4 mph 6 mph 92% 0 in 121 W/m2
12:39 46.9 °F 44.6 °F 30.1 in WNW 4.2 mph 7 mph 92% 0 in 130 W/m2
12:44 46.9 °F 44.6 °F 30.1 in WNW 4.5 mph 7 mph 92% 0 in 149 W/m2
12:49 46.9 °F 44.6 °F 30.1 in WNW 4 mph 7 mph 91.2% 0 in 149 W/m2
12:54 46.9 °F 44.6 °F 30.1 in WNW 3.1 mph 6 mph 91.2% 0 in 130 W/m2
12:59 47.1 °F 44.6 °F 30.1 in WSW 3.2 mph 5 mph 91.4% 0 in 95 W/m2
13:04 46.9 °F 44.6 °F 30.1 in West 3 mph 5 mph 91.4% 0 in 84 W/m2
13:09 46.8 °F 44.6 °F 30.1 in West 3.2 mph 5 mph 92% 0 in 84 W/m2
13:14 46.8 °F 44.6 °F 30.1 in West 2.3 mph 5 mph 92% 0 in 81 W/m2
13:19 46.8 °F 44.6 °F 30.1 in West 3.5 mph 6 mph 92% 0 in 123 W/m2
13:24 46.9 °F 44.8 °F 30.1 in WSW 3.9 mph 6 mph 92% 0 in 100 W/m2
13:29 46.9 °F 44.8 °F 30 in WSW 4.5 mph 6 mph 92% 0 in 199 W/m2
13:34 47.1 °F 45 °F 30 in WSW 5 mph 7 mph 92% 0 in 299 W/m2
13:39 47.5 °F 45.1 °F 30 in SW 5.5 mph 8.1 mph 92% 0 in 281 W/m2
13:44 47.7 °F 45.3 °F 30 in WSW 6 mph 8.1 mph 92% 0 in 281 W/m2
13:49 47.7 °F 45.3 °F 30 in WSW 6.4 mph 10.4 mph 91.2% 0 in 274 W/m2
13:54 47.8 °F 45.3 °F 30 in WSW 5.4 mph 10.4 mph 91% 0 in 258 W/m2
13:59 47.7 °F 45.1 °F 30 in WSW 6.6 mph 9.2 mph 91% 0 in 127 W/m2
14:04 47.5 °F 45 °F 30 in WSW 4.8 mph 9.2 mph 91% 0 in 139 W/m2
14:09 47.5 °F 45 °F 30 in WSW 5 mph 9 mph 91% 0 in 174 W/m2
14:14 47.5 °F 45 °F 30 in WSW 3.7 mph 8.1 mph 91% 0 in 171 W/m2
14:19 47.8 °F 45.3 °F 30 in WSW 3.9 mph 8.1 mph 91% 0 in 246 W/m2
14:24 48 °F 45.5 °F 30 in WSW 4.3 mph 8 mph 91% 0 in 213 W/m2
14:29 48 °F 45.5 °F 30 in SW 4.2 mph 6 mph 91% 0 in 209 W/m2
14:34 48 °F 45.5 °F 30 in WSW 5 mph 8 mph 91% 0 in 163 W/m2
14:39 47.8 °F 45.3 °F 30 in WSW 4.7 mph 8.1 mph 91% 0 in 127 W/m2
14:44 47.8 °F 45.3 °F 30 in WSW 4.6 mph 8.1 mph 91% 0 in 109 W/m2
14:49 47.8 °F 45.3 °F 30 in WSW 3.9 mph 8 mph 91% 0 in 97 W/m2
14:54 47.7 °F 45.3 °F 30 in WSW 3.5 mph 7 mph 91% 0 in 72 W/m2
14:59 47.7 °F 45.3 °F 30 in WSW 2.7 mph 6 mph 91.5% 0 in 62 W/m2
15:04 47.5 °F 45.3 °F 30 in WSW 3.4 mph 6 mph 92% 0 in 62 W/m2
15:09 47.5 °F 45.3 °F 30 in WSW 2.9 mph 5 mph 92% 0 in 54 W/m2
15:14 47.5 °F 45.5 °F 30 in WSW 2.5 mph 5 mph 93.3% 0 in 49 W/m2
15:19 47.3 °F 45.3 °F 30 in WSW 2.1 mph 4 mph 92.6% 0 in 47 W/m2
15:24 47.1 °F 45 °F 30 in WSW 2.5 mph 4 mph 92% 0 in 44 W/m2
15:29 46.9 °F 44.8 °F 30 in WSW 3.2 mph 5 mph 92% 0 in 44 W/m2
15:34 46.8 °F 44.6 °F 30 in WSW 3.3 mph 5 mph 92% 0 in 44 W/m2
15:39 46.8 °F 44.6 °F 30 in WSW 2.2 mph 5 mph 92.4% 0 in 39 W/m2
15:44 46.6 °F 44.8 °F 30 in WSW 1.7 mph 4 mph 93% 0 in 35 W/m2
15:49 46.6 °F 44.6 °F 30 in WSW 2.1 mph 4 mph 93% 0 in 32 W/m2
15:54 46.4 °F 44.4 °F 30 in WSW 1.7 mph 3.5 mph 93% 0 in 32 W/m2
15:59 46.2 °F 44.2 °F 30 in West 1.6 mph 3.5 mph 93% 0 in 32 W/m2
16:04 46.2 °F 44.2 °F 30 in WSW 2.4 mph 4 mph 93% 0 in 25 W/m2
16:09 46 °F 44.1 °F 30 in West 2.2 mph 4 mph 93% 0 in 23 W/m2
16:14 46 °F 44.1 °F 30 in West 2.1 mph 3.5 mph 93% 0 in 19 W/m2
16:19 45.9 °F 43.9 °F 30 in West 2.1 mph 4 mph 93% 0 in 18 W/m2
16:24 45.7 °F 43.7 °F 30 in West 1.4 mph 3.5 mph 93% 0 in 12 W/m2
16:29 45.3 °F 43.5 °F 30 in West 0.1 mph 2 mph 93.1% 0 in 7 W/m2
16:34 45 °F 43.3 °F 30 in NNW 0.5 mph 3 mph 93.8% 0 in 5 W/m2
16:39 44.8 °F 43.3 °F 30 in North 1.2 mph 3.5 mph 94% 0 in 0 W/m2
16:44 44.6 °F 43 °F 30 in Calm   3 mph 94% 0 in 0 W/m2
16:49 44.2 °F 42.6 °F 30 in Calm     94% 0 in 0 W/m2
16:54 43.9 °F 42.3 °F 30 in Calm     94% 0 in 0 W/m2
16:59 43.5 °F 41.9 °F 30 in Calm     94% 0 in 0 W/m2
17:04 43.3 °F 41.9 °F 30 in Calm     94.2% 0 in 0 W/m2
17:09 43.3 °F 42.1 °F 30 in Calm     95% 0 in 0 W/m2
17:14 43.2 °F 41.9 °F 30 in Calm     95% 0 in 0 W/m2
17:19 43.2 °F 41.9 °F 30 in ESE 1 mph 3.5 mph 95% 0 in 0 W/m2
17:24 43.2 °F 41.9 °F 30 in ESE 2.4 mph 3.5 mph 95% 0 in 0 W/m2
17:29 43.3 °F 42.1 °F 30 in SE 2.7 mph 4 mph 95% 0 in 0 W/m2
17:34 43.5 °F 42.1 °F 30 in SE 1.6 mph 4 mph 95% 0 in 0 W/m2
17:39 43.5 °F 42.3 °F 30 in SE 0.3 mph 3 mph 95% 0 in 0 W/m2
17:44 43.5 °F 42.3 °F 30 in South 1.3 mph 3.5 mph 95% 0 in 0 W/m2
17:49 43.7 °F 42.4 °F 30 in SSW 4.2 mph 7 mph 95% 0 in 0 W/m2
17:54 44.1 °F 42.8 °F 30 in South 3.4 mph 7 mph 95% 0 in 0 W/m2
17:59 44.2 °F 42.8 °F 30 in SSW 2.1 mph 6 mph 95% 0 in 0 W/m2
18:04 44.2 °F 43 °F 30 in SSE 1.4 mph 4 mph 95% 0 in 0 W/m2
18:09 44.1 °F 42.8 °F 30 in SSE 1.3 mph 3.5 mph 95% 0 in 0 W/m2
18:14 44.1 °F 42.8 °F 30 in South 1.4 mph 3.5 mph 95% 0 in 0 W/m2
18:19 44.1 °F 42.8 °F 30 in South 1.1 mph 3.5 mph 95% 0 in 0 W/m2
18:24 44.1 °F 42.8 °F 30 in South 0.6 mph 2.3 mph 95% 0 in 0 W/m2
18:29 44.1 °F 42.6 °F 30 in South 0.7 mph 2.3 mph 95% 0 in 0 W/m2
18:34 43.9 °F 42.6 °F 30 in SE 1.2 mph 3.5 mph 95% 0 in 0 W/m2
18:39 43.9 °F 42.6 °F 30 in ESE 1.7 mph 3.5 mph 95% 0 in 0 W/m2
18:44 43.9 °F 42.6 °F 30 in ESE 1.5 mph 3 mph 95% 0 in 0 W/m2
18:49 43.9 °F 42.6 °F 30 in ESE 1.6 mph 3.5 mph 95% 0 in 0 W/m2
18:54 43.9 °F 42.4 °F 30 in SSE 1.4 mph 3.5 mph 95% 0 in 0 W/m2
18:59 43.9 °F 42.4 °F 30 in South 1.3 mph 3.5 mph 95% 0 in 0 W/m2
19:04 43.9 °F 42.6 °F 30 in South 0.2 mph 3 mph 95% 0 in 0 W/m2
19:09 43.9 °F 42.6 °F 30 in Calm   2 mph 95% 0 in 0 W/m2
19:14 43.9 °F 42.6 °F 30 in Calm     95.4% 0 in 0 W/m2
19:19 43.9 °F 42.8 °F 30 in South 0.7 mph 2.3 mph 95.8% 0 in 0 W/m2
19:24 44.1 °F 43 °F 30 in SSW 1 mph 2.3 mph 96% 0 in 0 W/m2
19:29 44.1 °F 43 °F 30 in SSW 0.2 mph 1.2 mph 96% 0 in 0 W/m2
19:34 44.1 °F 43 °F 30 in Calm   1 mph 96% 0 in 0 W/m2
19:39 44.1 °F 43 °F 30 in Calm     96% 0 in 0 W/m2
19:44 44.1 °F 43 °F 30 in Calm     96% 0 in 0 W/m2
19:49 44.1 °F 43 °F 30 in Calm     96% 0 in 0 W/m2
19:54 44.1 °F 43 °F 30 in Calm     96% 0 in 0 W/m2
19:59 44.1 °F 43 °F 30 in Calm     96% 0 in 0 W/m2
20:04 44.1 °F 43 °F 30 in Calm     96% 0 in 0 W/m2
20:09 44.1 °F 43 °F 30 in Calm     96% 0 in 0 W/m2
20:14 44.2 °F 43.2 °F 30 in Calm     96% 0 in 0 W/m2
20:19 44.2 °F 43.2 °F 30 in Calm     96% 0 in 0 W/m2
20:24 44.2 °F 43.2 °F 30 in Calm     95.8% 0 in 0 W/m2
20:29 44.2 °F 43 °F 30 in Calm     95.2% 0 in 0 W/m2
20:34 44.2 °F 43 °F 30 in ENE 0.1 mph 2 mph 95% 0 in 0 W/m2
20:39 44.4 °F 43 °F 30 in ENE 1 mph 2.3 mph 95% 0 in 0 W/m2
20:44 44.4 °F 43.2 °F 30 in ENE 0.4 mph 2 mph 95% 0 in 0 W/m2
20:49 44.4 °F 43.2 °F 30 in ENE 0.4 mph 1.2 mph 95% 0 in 0 W/m2
20:53 44.4 °F 43.2 °F 30 in ENE 0.4 mph 1.2 mph 95% 0 in 0 W/m2
20:59 44.4 °F 43.2 °F 30 in ENE 0.1 mph 1.2 mph 95% 0 in 0 W/m2
21:04 44.4 °F 43.2 °F 30 in Calm     95% 0 in 0 W/m2
21:09 44.4 °F 43.2 °F 30 in Calm     95% 0 in 0 W/m2
21:14 44.4 °F 43 °F 30 in ENE 0.1 mph 2 mph 95% 0 in 0 W/m2
21:19 44.2 °F 43 °F 30 in East 1.3 mph 2.3 mph 95% 0 in 0 W/m2
21:24 44.2 °F 43 °F 30 in SE 2.2 mph 4 mph 95% 0 in 0 W/m2
21:29 44.2 °F 43 °F 30 in SE 0.8 mph 4 mph 95.5% 0 in 0 W/m2
21:34 44.2 °F 43 °F 30 in ESE 2.4 mph 4 mph 95.2% 0 in 0 W/m2
21:39 44.2 °F 43 °F 30 in ENE 0.8 mph 4 mph 95.5% 0 in 0 W/m2
21:44 44.2 °F 43 °F 30 in ENE 0.7 mph 2.3 mph 95.2% 0 in 0 W/m2
21:49 44.2 °F 43 °F 30 in ENE 0.1 mph 2 mph 95% 0 in 0 W/m2
21:54 44.2 °F 43 °F 30 in Calm     95% 0 in 0 W/m2
21:59 44.2 °F 43 °F 30 in Calm     95% 0 in 0 W/m2
22:04 44.2 °F 43 °F 30 in Calm     95% 0 in 0 W/m2
22:09 44.2 °F 43 °F 30 in Calm     95% 0 in 0 W/m2
22:14 44.2 °F 43 °F 30 in Calm     95% 0 in 0 W/m2
22:19 44.2 °F 43 °F 30 in East 1.3 mph 3.5 mph 95.1% 0 in 0 W/m2
22:24 44.2 °F 43 °F 30 in East 1.4 mph 3.5 mph 95% 0 in 0 W/m2
22:29 44.2 °F 43 °F 30 in East 0.8 mph 3 mph 95% 0 in 0 W/m2
22:34 44.2 °F 43 °F 30 in East 1.4 mph 2.3 mph 95% 0 in 0 W/m2
22:39 44.2 °F 43 °F 30 in ESE 0.9 mph 2.3 mph 95.2% 0 in 0 W/m2
22:44 44.2 °F 43 °F 30 in ESE 0.5 mph 2.3 mph 95.7% 0 in 0 W/m2
22:49 44.2 °F 43 °F 30 in ESE 0.2 mph 2.3 mph 95.8% 0 in 0 W/m2
22:54 44.2 °F 43 °F 30 in ESE 0.4 mph 2.3 mph 95.9% 0 in 0 W/m2
22:59 44.1 °F 43 °F 30 in Calm   2 mph 96% 0 in 0 W/m2
23:04 44.1 °F 43 °F 30 in Calm     96% 0 in 0 W/m2
23:09 44.1 °F 43 °F 30 in Calm     96% 0 in 0 W/m2
23:14 44.1 °F 43 °F 30 in Calm     96% 0 in 0 W/m2
23:19 44.1 °F 43 °F 30 in SE 0.3 mph 2.3 mph 96% 0 in 0 W/m2
23:24 44.1 °F 43 °F 30 in SSE 1.4 mph 2.3 mph 96% 0 in 0 W/m2
23:29 44.2 °F 43.2 °F 30 in South 1 mph 2.3 mph 96% 0 in 0 W/m2
23:34 44.2 °F 43.2 °F 30 in SSW 1 mph 2.3 mph 95.8% 0 in 0 W/m2
23:39 44.2 °F 43.2 °F 30 in SSW 1.2 mph 2.3 mph 96% 0 in 0 W/m2
23:44 44.2 °F 43.2 °F 30 in SW 1.5 mph 3 mph 96% 0 in 0 W/m2
23:49 44.2 °F 43.2 °F 30 in WSW 1.1 mph 3.5 mph 96% 0 in 0 W/m2
23:54 44.2 °F 43.2 °F 30 in Calm   3 mph 96% 0 in 0 W/m2
23:59 44.2 °F 43.2 °F 30 in WSW 0.8 mph 2.3 mph 96% 0 in 0 W/m2
Stazione Meteorologica MeteoMincio Rivalta s/M (MN)
Con i complimenti di Weather Underground - 4 mb


METEO PILLOLE
Temperatura minima più alta
Khasab (3m) - Oman
Il 27 giugno 2011 il termometro segnò +41.7°c .

Do NOT follow this link or you will be banned from the site!